Time;durP1;ratioP1;P1;durP2;ratioP2;P2;SDS_P1;SDS_P2;PMS_P1;PMS_P2;Temp;Humidity;BMP_temperature;BMP_pressure;BME280_temperature;BME280_humidity;BME280_pressure;Samples;Min_cycle;Max_cycle;Signal;HPM_P1;HPM_P2
2023/05/11 00:00:43;;;;;;;14.50;7.05;;;;;;;;;;5013183;28;20453;-77
2023/05/11 00:03:10;;;;;;;12.85;6.75;;;;;;;;;;4995186;28;20042;-77
2023/05/11 00:05:36;;;;;;;17.23;7.00;;;;;;;;;;4994712;28;20076;-77
2023/05/11 00:08:02;;;;;;;12.95;6.60;;;;;;;;;;5012748;28;20068;-76
2023/05/11 00:10:28;;;;;;;23.27;6.88;;;;;;;;;;4993953;28;20088;-77
2023/05/11 00:12:54;;;;;;;8.90;6.82;;;;;;;;;;5010369;28;20045;-77
2023/05/11 00:15:20;;;;;;;22.67;13.18;;;;;;;;;;5010034;28;20041;-76
2023/05/11 00:17:46;;;;;;;18.45;12.02;;;;;;;;;;5009794;28;20038;-75
2023/05/11 00:20:12;;;;;;;20.67;11.98;;;;;;;;;;5011177;28;20041;-74
2023/05/11 00:22:39;;;;;;;18.10;11.60;;;;;;;;;;5011163;28;20029;-75
2023/05/11 00:25:05;;;;;;;22.25;8.73;;;;;;;;;;5011115;28;20042;-76
2023/05/11 00:27:31;;;;;;;16.63;8.63;;;;;;;;;;4993852;28;20531;-76
2023/05/11 00:29:57;;;;;;;24.95;7.32;;;;;;;;;;5010948;28;20033;-75
2023/05/11 00:32:23;;;;;;;14.63;7.35;;;;;;;;;;5011116;28;20121;-73
2023/05/11 00:34:49;;;;;;;16.15;7.72;;;;;;;;;;4993362;28;20415;-76
2023/05/11 00:37:15;;;;;;;10.05;6.47;;;;;;;;;;5010855;28;20526;-76
2023/05/11 00:39:41;;;;;;;24.73;7.85;;;;;;;;;;5011115;28;20132;-77
2023/05/11 00:42:09;;;;;;;22.20;7.30;;;;;;;;;;5010905;28;20038;-76
2023/05/11 00:44:35;;;;;;;19.58;6.97;;;;;;;;;;5010902;28;20042;-76
2023/05/11 00:47:01;;;;;;;16.17;6.32;;;;;;;;;;5011007;28;20033;-76
2023/05/11 00:49:28;;;;;;;21.30;6.97;;;;;;;;;;4993612;28;20038;-74
2023/05/11 00:51:56;;;;;;;15.27;6.18;;;;;;;;;;5009458;28;20475;-73
2023/05/11 00:54:23;;;;;;;11.13;6.32;;;;;;;;;;5009473;28;20078;-76
2023/05/11 00:56:49;;;;;;;14.57;6.63;;;;;;;;;;5010069;28;20038;-77
2023/05/11 00:59:15;;;;;;;17.50;6.55;;;;;;;;;;5009387;28;20163;-76
2023/05/11 01:01:40;;;;;;;14.38;6.50;;;;;;;;;;5010612;28;20065;-75
2023/05/11 01:04:06;;;;;;;12.15;6.43;;;;;;;;;;5010110;28;20061;-76
2023/05/11 01:06:51;;;;;;;18.83;6.70;;;;;;;;;;4997777;28;20038;-76
2023/05/11 01:09:24;;;;;;;18.77;6.82;;;;;;;;;;5030499;28;20128;-76
2023/05/11 01:11:53;;;;;;;10.85;6.93;;;;;;;;;;5028825;28;20129;-77
2023/05/11 01:14:20;;;;;;;15.52;6.95;;;;;;;;;;5032764;28;20025;-76
2023/05/11 01:16:47;;;;;;;22.10;7.35;;;;;;;;;;5035849;28;20551;-77
2023/05/11 01:19:23;;;;;;;24.10;7.15;;;;;;;;;;5009864;28;20034;-76
2023/05/11 01:21:50;;;;;;;11.77;6.53;;;;;;;;;;5014510;28;20512;-75
2023/05/11 01:24:23;;;;;;;14.10;6.63;;;;;;;;;;5014865;28;20504;-76
2023/05/11 01:27:08;;;;;;;16.00;6.95;;;;;;;;;;4998786;28;20111;-76
2023/05/11 01:29:40;;;;;;;12.27;6.97;;;;;;;;;;5014825;28;20042;-77
2023/05/11 01:32:09;;;;;;;12.15;6.30;;;;;;;;;;5013028;28;20042;-75
2023/05/11 01:34:35;;;;;;;19.25;8.00;;;;;;;;;;5013242;28;20036;-76
2023/05/11 01:37:04;;;;;;;17.52;7.18;;;;;;;;;;4996258;28;20033;-76
2023/05/11 01:39:37;;;;;;;18.60;7.50;;;;;;;;;;5013140;28;20069;-76
2023/05/11 01:42:08;;;;;;;17.25;8.32;;;;;;;;;;5013363;28;20077;-76
2023/05/11 01:44:34;;;;;;;26.52;7.53;;;;;;;;;;5014400;28;20069;-74
2023/05/11 01:47:00;;;;;;;20.35;8.15;;;;;;;;;;5014285;28;20137;-75
2023/05/11 01:49:27;;;;;;;25.08;9.15;;;;;;;;;;5015393;28;20038;-76
2023/05/11 01:51:53;;;;;;;31.50;9.32;;;;;;;;;;5020452;28;20056;-77
2023/05/11 01:54:20;;;;;;;35.22;9.57;;;;;;;;;;5006997;28;20081;-75
2023/05/11 01:56:46;;;;;;;21.60;9.88;;;;;;;;;;5024263;28;20113;-74
2023/05/11 01:59:13;;;;;;;24.73;11.70;;;;;;;;;;5011503;28;20041;-75
2023/05/11 02:01:39;;;;;;;93.35;29.33;;;;;;;;;;5024325;28;20129;-75
2023/05/11 02:04:05;;;;;;;34.75;12.80;;;;;;;;;;5002659;28;20530;-77
2023/05/11 02:06:31;;;;;;;49.97;15.45;;;;;;;;;;5017349;28;20292;-78
2023/05/11 02:08:58;;;;;;;166.60;49.47;;;;;;;;;;5016079;28;20045;-75
2023/05/11 02:11:24;;;;;;;56.97;20.05;;;;;;;;;;5013552;28;20535;-75
2023/05/11 02:13:50;;;;;;;57.35;18.80;;;;;;;;;;5012737;28;20040;-77
2023/05/11 02:16:16;;;;;;;76.05;26.02;;;;;;;;;;4996451;28;20113;-75
2023/05/11 02:18:42;;;;;;;57.13;18.60;;;;;;;;;;4980851;28;20120;-75
2023/05/11 02:21:08;;;;;;;84.90;25.30;;;;;;;;;;5019873;28;20050;-76
2023/05/11 02:23:34;;;;;;;33.60;12.43;;;;;;;;;;5021080;28;20034;-77
2023/05/11 02:26:01;;;;;;;26.67;10.52;;;;;;;;;;5022907;28;20076;-75
2023/05/11 02:28:27;;;;;;;18.98;8.90;;;;;;;;;;4989782;28;20070;-78
2023/05/11 02:30:55;;;;;;;20.80;9.63;;;;;;;;;;5023681;28;20168;-77
2023/05/11 02:33:33;;;;;;;13.23;7.60;;;;;;;;;;5000994;28;20038;-77
2023/05/11 02:36:01;;;;;;;29.85;12.07;;;;;;;;;;5018983;28;20068;-77
2023/05/11 02:38:31;;;;;;;103.97;32.85;;;;;;;;;;4999119;28;20049;-78
2023/05/11 02:41:17;;;;;;;98.55;32.42;;;;;;;;;;5016561;28;20096;-79
2023/05/11 02:43:44;;;;;;;65.60;21.33;;;;;;;;;;4998649;28;20067;-76
2023/05/11 02:46:13;;;;;;;35.80;12.20;;;;;;;;;;5013295;28;20088;-77
2023/05/11 02:48:44;;;;;;;63.38;17.10;;;;;;;;;;5014347;28;20038;-78
2023/05/11 02:51:11;;;;;;;50.97;16.05;;;;;;;;;;4998588;28;20626;-78
2023/05/11 02:53:44;;;;;;;35.80;12.95;;;;;;;;;;4998376;28;20034;-78
2023/05/11 02:56:10;;;;;;;41.67;14.30;;;;;;;;;;5025711;28;20057;-78
2023/05/11 02:58:36;;;;;;;64.63;20.00;;;;;;;;;;5027160;28;20125;-79
2023/05/11 03:01:21;;;;;;;45.03;14.18;;;;;;;;;;5022444;28;20045;-78
2023/05/11 03:03:49;;;;;;;43.35;14.80;;;;;;;;;;5001543;28;20544;-78
2023/05/11 03:06:16;;;;;;;48.13;14.85;;;;;;;;;;5000702;28;20149;-77
2023/05/11 03:08:42;;;;;;;64.22;18.27;;;;;;;;;;5000967;28;20092;-80
2023/05/11 03:11:09;;;;;;;58.92;20.20;;;;;;;;;;4988860;28;20038;-78
2023/05/11 03:13:35;;;;;;;54.88;16.75;;;;;;;;;;5020930;28;20026;-79
2023/05/11 03:16:03;;;;;;;21.55;9.68;;;;;;;;;;5021392;28;20022;-79
2023/05/11 03:18:31;;;;;;;25.77;9.98;;;;;;;;;;5006207;28;20131;-79
2023/05/11 03:20:57;;;;;;;29.55;12.75;;;;;;;;;;5004581;28;20033;-78
2023/05/11 03:23:23;;;;;;;46.20;15.13;;;;;;;;;;5002391;28;20879;-79
2023/05/11 03:25:49;;;;;;;46.78;16.38;;;;;;;;;;5018635;28;20030;-78
2023/05/11 03:28:15;;;;;;;68.95;23.85;;;;;;;;;;5016197;28;20037;-79
2023/05/11 03:30:48;;;;;;;87.13;26.85;;;;;;;;;;5018318;28;20420;-79
2023/05/11 03:33:14;;;;;;;84.53;22.75;;;;;;;;;;5016725;28;20049;-79
2023/05/11 03:35:41;;;;;;;65.78;22.08;;;;;;;;;;5016729;28;20037;-78
2023/05/11 03:38:07;;;;;;;58.92;23.80;;;;;;;;;;5014601;28;20447;-78
2023/05/11 03:40:33;;;;;;;41.83;14.90;;;;;;;;;;5014161;28;20033;-80
2023/05/11 03:43:00;;;;;;;42.55;12.40;;;;;;;;;;5015779;28;20038;-79
2023/05/11 03:45:27;;;;;;;25.92;11.43;;;;;;;;;;5013171;28;20056;-79
2023/05/11 03:47:53;;;;;;;33.30;12.77;;;;;;;;;;5013846;28;20123;-79
2023/05/11 03:50:19;;;;;;;25.13;11.55;;;;;;;;;;5014173;28;20048;-80
2023/05/11 03:52:45;;;;;;;22.92;10.55;;;;;;;;;;5017722;28;20034;-79
2023/05/11 03:55:15;;;;;;;28.60;10.05;;;;;;;;;;4996264;28;20062;-79
2023/05/11 03:57:41;;;;;;;21.55;10.07;;;;;;;;;;5013976;28;20077;-80
2023/05/11 04:00:09;;;;;;;21.48;10.52;;;;;;;;;;4982012;28;20034;-80
2023/05/11 04:02:41;;;;;;;28.02;10.27;;;;;;;;;;5001418;28;20164;-80
2023/05/11 04:05:11;;;;;;;36.95;14.70;;;;;;;;;;5018787;28;20061;-80
2023/05/11 04:07:43;;;;;;;27.52;11.70;;;;;;;;;;5002762;28;20050;-80
2023/05/11 04:10:09;;;;;;;19.10;9.35;;;;;;;;;;5018013;28;20116;-80
2023/05/11 04:12:35;;;;;;;26.17;10.48;;;;;;;;;;5017069;28;20042;-80
2023/05/11 04:15:01;;;;;;;31.45;11.65;;;;;;;;;;5018129;28;20038;-81
2023/05/11 04:17:27;;;;;;;29.48;10.23;;;;;;;;;;4998618;28;20030;-80
2023/05/11 04:19:54;;;;;;;24.80;10.57;;;;;;;;;;5015037;28;20037;-80
2023/05/11 04:22:20;;;;;;;26.55;12.10;;;;;;;;;;5013627;28;20448;-79
2023/05/11 04:24:46;;;;;;;23.08;9.80;;;;;;;;;;5016563;28;20070;-81
2023/05/11 04:27:12;;;;;;;25.20;9.45;;;;;;;;;;4998278;28;20068;-80
2023/05/11 04:29:38;;;;;;;18.00;9.68;;;;;;;;;;5010996;28;20045;-81
2023/05/11 04:32:04;;;;;;;26.55;9.88;;;;;;;;;;5018001;28;20045;-81
2023/05/11 04:34:30;;;;;;;19.30;7.38;;;;;;;;;;4985323;28;20034;-80
2023/05/11 04:36:56;;;;;;;16.05;8.50;;;;;;;;;;4998821;28;20046;-81
2023/05/11 04:39:23;;;;;;;16.80;7.82;;;;;;;;;;5017598;28;20049;-81
2023/05/11 04:41:48;;;;;;;15.43;7.93;;;;;;;;;;5021375;28;20533;-81
2023/05/11 04:44:14;;;;;;;20.48;7.68;;;;;;;;;;4990169;28;20057;-80
2023/05/11 04:46:40;;;;;;;18.08;7.35;;;;;;;;;;5019173;28;20038;-80
2023/05/11 04:49:07;;;;;;;11.25;6.63;;;;;;;;;;4998326;28;20532;-79
2023/05/11 04:51:35;;;;;;;12.07;7.05;;;;;;;;;;4998318;28;20484;-78
2023/05/11 04:54:01;;;;;;;11.13;6.80;;;;;;;;;;5014391;28;20033;-80
2023/05/11 04:56:27;;;;;;;22.17;6.03;;;;;;;;;;4996191;28;20508;-78
2023/05/11 04:58:53;;;;;;;11.85;5.80;;;;;;;;;;5014151;28;20034;-78
2023/05/11 05:01:19;;;;;;;12.70;6.85;;;;;;;;;;5011740;28;20116;-79
2023/05/11 05:03:49;;;;;;;11.23;6.10;;;;;;;;;;4979627;28;20029;-78
2023/05/11 05:06:16;;;;;;;14.25;5.90;;;;;;;;;;5018682;28;20056;-82
2023/05/11 05:08:42;;;;;;;9.77;5.40;;;;;;;;;;5010256;28;20054;-82
2023/05/11 05:11:09;;;;;;;10.38;5.68;;;;;;;;;;5009275;28;20053;-81
2023/05/11 05:13:36;;;;;;;9.48;5.70;;;;;;;;;;5017750;28;20084;-80
2023/05/11 05:16:20;;;;;;;11.40;4.88;;;;;;;;;;5020034;28;20042;-82
2023/05/11 05:18:47;;;;;;;9.98;5.60;;;;;;;;;;5026531;28;20056;-80
2023/05/11 05:21:14;;;;;;;4.88;4.43;;;;;;;;;;5020979;28;20037;-79
2023/05/11 05:23:40;;;;;;;7.88;4.78;;;;;;;;;;5014177;28;20540;-79
2023/05/11 05:26:06;;;;;;;12.00;4.82;;;;;;;;;;5013651;28;20137;-78
2023/05/11 05:28:34;;;;;;;16.48;5.85;;;;;;;;;;4997019;28;20049;-79
2023/05/11 05:31:01;;;;;;;8.82;4.22;;;;;;;;;;4981050;28;20030;-79
2023/05/11 05:33:27;;;;;;;8.70;4.30;;;;;;;;;;5006958;28;20104;-77
2023/05/11 05:35:54;;;;;;;4.30;3.88;;;;;;;;;;4991726;28;20052;-79
2023/05/11 05:38:20;;;;;;;10.50;4.05;;;;;;;;;;5000223;28;20041;-79
2023/05/11 05:40:46;;;;;;;12.27;4.00;;;;;;;;;;5014889;28;20061;-79
2023/05/11 05:43:14;;;;;;;10.40;3.40;;;;;;;;;;5004987;28;20545;-81
2023/05/11 05:45:42;;;;;;;12.18;3.70;;;;;;;;;;5024970;28;20054;-81
2023/05/11 05:48:08;;;;;;;5.07;3.60;;;;;;;;;;5024778;28;20021;-81
2023/05/11 05:50:35;;;;;;;28.63;16.35;;;;;;;;;;5007425;28;20041;-81
2023/05/11 05:53:01;;;;;;;12.40;3.95;;;;;;;;;;5029832;28;20030;-83
2023/05/11 05:58:11;;;;;;;8.10;4.15;;;;;;;;;;5172940;22;20042;-83
2023/05/11 06:00:37;;;;;;;7.20;3.53;;;;;;;;;;5083326;22;20130;-82
2023/05/11 06:03:07;;;;;;;11.93;4.32;;;;;;;;;;5015096;28;20030;-82
2023/05/11 06:05:34;;;;;;;3.70;3.10;;;;;;;;;;5028071;28;20048;-81
2023/05/11 06:08:01;;;;;;;4.22;3.25;;;;;;;;;;5025902;28;20169;-80
2023/05/11 06:10:27;;;;;;;5.95;3.17;;;;;;;;;;5001157;28;20101;-79
2023/05/11 06:12:54;;;;;;;6.68;3.60;;;;;;;;;;4983929;28;20508;-81
2023/05/11 06:15:20;;;;;;;6.80;3.60;;;;;;;;;;4984130;28;20075;-81
2023/05/11 06:17:51;;;;;;;4.50;3.20;;;;;;;;;;4982059;28;20500;-80
2023/05/11 06:20:17;;;;;;;6.00;3.28;;;;;;;;;;4983329;28;20038;-81
2023/05/11 06:22:43;;;;;;;6.80;3.03;;;;;;;;;;5022486;28;20508;-79
2023/05/11 06:25:10;;;;;;;4.57;3.20;;;;;;;;;;5006953;28;20046;-80
2023/05/11 06:27:37;;;;;;;3.80;3.38;;;;;;;;;;4977293;28;20033;-79
2023/05/11 06:30:03;;;;;;;5.05;3.00;;;;;;;;;;5203205;23;20057;-81
2023/05/11 06:32:34;;;;;;;3.08;2.88;;;;;;;;;;5014457;28;20054;-82
2023/05/11 06:35:01;;;;;;;5.43;3.20;;;;;;;;;;5000103;28;20085;-82
2023/05/11 06:37:31;;;;;;;6.63;2.97;;;;;;;;;;5014706;28;20030;-82
2023/05/11 06:39:57;;;;;;;3.45;2.97;;;;;;;;;;5016722;28;20150;-81
2023/05/11 06:42:23;;;;;;;8.50;3.78;;;;;;;;;;5048429;28;20022;-82
2023/05/11 06:44:50;;;;;;;3.42;2.70;;;;;;;;;;5026479;28;20066;-80
2023/05/11 06:47:16;;;;;;;3.63;2.80;;;;;;;;;;5011405;28;20093;-80
2023/05/11 06:49:42;;;;;;;2.45;2.35;;;;;;;;;;5013462;28;20033;-83
2023/05/11 06:52:08;;;;;;;5.75;2.85;;;;;;;;;;5052316;28;20037;-81
2023/05/11 06:54:35;;;;;;;7.78;3.33;;;;;;;;;;5015191;28;20041;-84
2023/05/11 06:57:04;;;;;;;5.13;2.97;;;;;;;;;;4996788;28;20038;-81
2023/05/11 06:59:31;;;;;;;7.00;3.30;;;;;;;;;;5013297;28;20041;-82
2023/05/11 07:01:57;;;;;;;8.35;3.15;;;;;;;;;;5014629;28;20033;-81
2023/05/11 07:04:24;;;;;;;4.07;3.03;;;;;;;;;;5017106;28;20038;-80
2023/05/11 07:06:50;;;;;;;7.53;3.25;;;;;;;;;;5005649;28;20048;-82
2023/05/11 07:09:16;;;;;;;3.33;3.03;;;;;;;;;;5017553;28;20062;-81
2023/05/11 07:14:40;;;;;;;2.72;2.47;;;;;;;;;;4996874;28;20026;-82
2023/05/11 07:17:06;;;;;;;7.80;3.25;;;;;;;;;;5100000;22;20083;-84
2023/05/11 07:19:32;;;;;;;4.50;2.50;;;;;;;;;;5184983;22;20081;-85
2023/05/11 07:21:58;;;;;;;4.90;2.80;;;;;;;;;;5345266;22;20053;-85
2023/05/11 07:24:24;;;;;;;3.78;3.25;;;;;;;;;;5767966;22;20038;-81
2023/05/11 07:26:50;;;;;;;7.82;2.53;;;;;;;;;;5017134;28;20093;-82
2023/05/11 07:29:17;;;;;;;6.63;2.80;;;;;;;;;;5705432;22;20065;-82
2023/05/11 07:31:43;;;;;;;3.25;2.33;;;;;;;;;;5162251;22;20105;-84
2023/05/11 07:34:09;;;;;;;4.90;2.50;;;;;;;;;;5555380;22;20325;-83
2023/05/11 07:37:01;;;;;;;2.85;2.60;;;;;;;;;;5904045;22;21471;-80
2023/05/11 07:39:27;;;;;;;6.22;2.50;;;;;;;;;;5334389;22;20020;-80
2023/05/11 07:41:53;;;;;;;6.30;2.72;;;;;;;;;;5021847;28;20018;-84
2023/05/11 07:44:19;;;;;;;3.50;2.25;;;;;;;;;;5409686;22;20335;-81
2023/05/11 07:46:45;;;;;;;5.43;2.65;;;;;;;;;;4999673;28;20067;-80
2023/05/11 07:49:11;;;;;;;9.05;2.97;;;;;;;;;;5031873;28;20096;-84
2023/05/11 07:51:37;;;;;;;4.65;2.67;;;;;;;;;;5012905;28;20490;-77
2023/05/11 07:54:03;;;;;;;3.40;2.47;;;;;;;;;;5015504;28;20026;-78
2023/05/11 07:56:29;;;;;;;3.10;2.47;;;;;;;;;;5010365;28;20040;-78
2023/05/11 07:58:55;;;;;;;2.67;2.50;;;;;;;;;;5003395;28;20061;-78
2023/05/11 08:01:22;;;;;;;7.50;2.50;;;;;;;;;;4987649;28;20050;-78
2023/05/11 08:03:47;;;;;;;2.83;2.58;;;;;;;;;;4973680;28;20045;-78
2023/05/11 08:06:13;;;;;;;2.90;2.40;;;;;;;;;;4990730;28;20050;-78
2023/05/11 08:08:39;;;;;;;4.70;2.90;;;;;;;;;;4991228;28;20089;-78
2023/05/11 08:11:05;;;;;;;5.13;2.75;;;;;;;;;;4989625;28;20034;-78
2023/05/11 08:13:32;;;;;;;5.93;2.80;;;;;;;;;;4992611;28;20054;-79
2023/05/11 08:15:58;;;;;;;3.15;2.95;;;;;;;;;;4994955;28;20497;-79
2023/05/11 08:18:24;;;;;;;3.22;2.97;;;;;;;;;;4997113;28;20037;-79
2023/05/11 08:20:50;;;;;;;3.90;2.85;;;;;;;;;;4996499;28;20103;-79
2023/05/11 08:23:17;;;;;;;3.85;2.72;;;;;;;;;;4994693;28;20031;-77
2023/05/11 08:25:48;;;;;;;5.35;2.97;;;;;;;;;;4995773;28;20046;-77
2023/05/11 08:28:13;;;;;;;4.20;3.13;;;;;;;;;;4995366;28;20034;-78
2023/05/11 08:30:39;;;;;;;9.93;3.53;;;;;;;;;;4995826;28;20049;-78
2023/05/11 08:33:06;;;;;;;13.35;3.75;;;;;;;;;;4996308;28;20114;-76
2023/05/11 08:35:32;;;;;;;3.72;3.42;;;;;;;;;;4980598;28;20050;-78
2023/05/11 08:37:58;;;;;;;14.15;3.45;;;;;;;;;;4995560;28;20089;-78
2023/05/11 08:40:25;;;;;;;2.83;2.40;;;;;;;;;;4997952;28;20046;-78
2023/05/11 08:42:52;;;;;;;2.30;2.08;;;;;;;;;;4995635;28;20039;-81
2023/05/11 08:45:18;;;;;;;2.40;2.20;;;;;;;;;;4994995;28;20077;-78
2023/05/11 08:47:45;;;;;;;3.13;2.20;;;;;;;;;;5002789;28;20034;-78
2023/05/11 08:50:11;;;;;;;4.32;2.60;;;;;;;;;;5008805;28;20041;-78
2023/05/11 08:52:37;;;;;;;10.23;2.50;;;;;;;;;;5010241;28;20319;-78
2023/05/11 08:55:03;;;;;;;2.97;2.70;;;;;;;;;;5010235;28;20067;-78
2023/05/11 08:57:31;;;;;;;9.23;3.33;;;;;;;;;;5007839;28;20034;-79
2023/05/11 08:59:57;;;;;;;7.32;2.92;;;;;;;;;;4996008;28;20069;-78
2023/05/11 09:02:22;;;;;;;5.40;2.80;;;;;;;;;;4995458;28;20120;-78
2023/05/11 09:04:48;;;;;;;6.68;2.78;;;;;;;;;;4994540;28;20046;-79
2023/05/11 09:07:16;;;;;;;9.68;2.83;;;;;;;;;;4993071;28;20141;-79
2023/05/11 09:09:42;;;;;;;5.35;2.45;;;;;;;;;;4994992;28;20037;-78
2023/05/11 09:12:08;;;;;;;6.78;2.40;;;;;;;;;;4992443;28;20049;-78
2023/05/11 09:14:34;;;;;;;3.55;2.60;;;;;;;;;;4992932;28;20178;-79
2023/05/11 09:17:01;;;;;;;4.32;2.55;;;;;;;;;;4991374;28;20045;-78
2023/05/11 09:19:27;;;;;;;3.47;3.05;;;;;;;;;;4991073;28;20505;-79
2023/05/11 09:21:53;;;;;;;4.32;2.55;;;;;;;;;;4991875;28;20096;-78
2023/05/11 09:24:20;;;;;;;4.47;2.72;;;;;;;;;;4991744;28;20038;-78
2023/05/11 09:26:46;;;;;;;2.92;2.70;;;;;;;;;;4994792;28;20050;-78
2023/05/11 09:29:11;;;;;;;4.53;2.80;;;;;;;;;;4996077;28;20619;-79
2023/05/11 09:31:41;;;;;;;4.43;4.03;;;;;;;;;;4995731;28;20034;-78
2023/05/11 09:34:09;;;;;;;4.80;3.40;;;;;;;;;;5009874;28;20043;-78
2023/05/11 09:36:35;;;;;;;3.92;2.78;;;;;;;;;;4996789;28;20139;-79
2023/05/11 09:39:03;;;;;;;3.08;2.80;;;;;;;;;;4998800;28;20041;-79
2023/05/11 09:41:29;;;;;;;4.25;2.67;;;;;;;;;;4997890;28;20034;-78
2023/05/11 09:44:05;;;;;;;2.70;2.50;;;;;;;;;;4999514;28;20072;-78
2023/05/11 09:46:31;;;;;;;2.63;2.50;;;;;;;;;;4998447;28;20513;-80
2023/05/11 09:48:58;;;;;;;2.50;2.30;;;;;;;;;;5014185;28;20122;-78
2023/05/11 09:51:31;;;;;;;2.58;2.38;;;;;;;;;;5000254;28;20037;-78
2023/05/11 09:53:57;;;;;;;3.55;2.45;;;;;;;;;;4998143;28;20117;-79
2023/05/11 09:56:22;;;;;;;2.70;2.50;;;;;;;;;;4996779;28;20484;-76
2023/05/11 09:58:50;;;;;;;3.90;2.30;;;;;;;;;;5003148;28;20034;-77
2023/05/11 10:01:16;;;;;;;3.40;2.45;;;;;;;;;;5007629;28;20133;-78
2023/05/11 10:03:52;;;;;;;4.72;2.47;;;;;;;;;;5011696;28;20037;-77
2023/05/11 10:06:18;;;;;;;2.67;2.40;;;;;;;;;;5022669;28;20058;-76
2023/05/11 10:08:44;;;;;;;4.38;2.42;;;;;;;;;;5012168;28;20030;-76
2023/05/11 10:11:10;;;;;;;2.90;2.22;;;;;;;;;;5013126;28;20030;-76
2023/05/11 10:13:37;;;;;;;2.90;2.50;;;;;;;;;;5024418;28;20046;-76
2023/05/11 10:16:05;;;;;;;2.58;2.47;;;;;;;;;;5007783;28;20030;-76
2023/05/11 10:18:32;;;;;;;2.58;2.30;;;;;;;;;;5002675;28;20117;-76
2023/05/11 10:20:58;;;;;;;2.40;2.20;;;;;;;;;;5004618;28;20038;-78
2023/05/11 10:23:24;;;;;;;2.75;2.20;;;;;;;;;;4997688;28;20044;-77
2023/05/11 10:25:51;;;;;;;6.03;2.58;;;;;;;;;;4994519;28;20049;-77
2023/05/11 10:28:17;;;;;;;3.95;2.42;;;;;;;;;;4992981;28;20183;-78
2023/05/11 10:30:43;;;;;;;3.70;2.47;;;;;;;;;;4994238;28;20117;-77
2023/05/11 10:33:09;;;;;;;2.58;2.38;;;;;;;;;;4992775;28;20395;-78
2023/05/11 10:35:36;;;;;;;4.38;2.60;;;;;;;;;;4993950;28;20409;-77
2023/05/11 10:38:02;;;;;;;5.55;2.30;;;;;;;;;;4991071;28;20038;-76
2023/05/11 10:40:28;;;;;;;2.47;2.33;;;;;;;;;;4992120;28;20039;-78
2023/05/11 10:43:03;;;;;;;4.13;2.80;;;;;;;;;;4993743;28;20404;-77
2023/05/11 10:45:49;;;;;;;5.10;2.40;;;;;;;;;;4991933;28;20049;-76
2023/05/11 10:48:22;;;;;;;10.05;2.70;;;;;;;;;;4978783;28;20524;-77
2023/05/11 10:51:07;;;;;;;14.00;2.60;;;;;;;;;;4980140;28;20035;-76
2023/05/11 10:53:42;;;;;;;4.32;2.28;;;;;;;;;;5009979;28;20034;-79
2023/05/11 10:56:15;;;;;;;4.75;1.73;;;;;;;;;;4994459;28;20031;-79
2023/05/11 10:58:58;;;;;;;1.65;1.55;;;;;;;;;;4974797;28;20045;-78
2023/05/11 11:01:25;;;;;;;1.55;1.48;;;;;;;;;;4992660;28;20038;-78
2023/05/11 11:03:58;;;;;;;4.00;1.70;;;;;;;;;;4993075;28;20061;-77
2023/05/11 11:06:24;;;;;;;1.63;1.52;;;;;;;;;;4992010;28;20038;-78
2023/05/11 11:08:55;;;;;;;1.50;1.40;;;;;;;;;;4993888;28;20045;-79
2023/05/11 11:11:31;;;;;;;1.38;1.30;;;;;;;;;;4993386;28;20485;-78
2023/05/11 11:14:02;;;;;;;1.95;1.45;;;;;;;;;;4993955;28;20049;-76
2023/05/11 11:16:28;;;;;;;3.20;1.70;;;;;;;;;;4992315;28;20084;-76
2023/05/11 11:19:24;;;;;;;1.70;1.60;;;;;;;;;;4995286;28;20113;-78
2023/05/11 11:21:50;;;;;;;2.55;1.73;;;;;;;;;;4976630;28;20042;-78
2023/05/11 11:24:35;;;;;;;2.00;1.90;;;;;;;;;;4992036;28;20480;-78
2023/05/11 11:27:01;;;;;;;3.15;1.50;;;;;;;;;;4992594;28;20030;-79
2023/05/11 11:29:28;;;;;;;2.63;1.55;;;;;;;;;;4996259;28;20034;-82
2023/05/11 11:31:55;;;;;;;1.60;1.50;;;;;;;;;;5002135;28;20034;-83
2023/05/11 11:34:27;;;;;;;1.25;1.23;;;;;;;;;;5004941;28;20094;-82
2023/05/11 11:36:54;;;;;;;1.40;1.30;;;;;;;;;;5029005;28;20968;-85
2023/05/11 11:39:20;;;;;;;1.65;1.50;;;;;;;;;;5038298;28;20049;-85
2023/05/11 11:42:00;;;;;;;3.50;2.42;;;;;;;;;;5169153;22;20658;-85
2023/05/11 11:44:26;;;;;;;1.75;1.65;;;;;;;;;;5026605;28;20052;-80
2023/05/11 11:47:11;;;;;;;2.00;1.80;;;;;;;;;;5030450;28;20132;-82
2023/05/11 11:49:37;;;;;;;1.98;1.80;;;;;;;;;;5028669;28;20459;-84
2023/05/11 11:52:05;;;;;;;8.52;2.70;;;;;;;;;;5034539;28;20045;-82
2023/05/11 11:54:38;;;;;;;11.18;2.97;;;;;;;;;;5041750;28;20044;-83
2023/05/11 11:57:04;;;;;;;2.40;2.00;;;;;;;;;;5055777;28;20124;-84
2023/05/11 11:59:31;;;;;;;4.82;2.15;;;;;;;;;;5053881;28;20049;-82
2023/05/11 12:01:57;;;;;;;1.75;1.65;;;;;;;;;;5022314;28;20034;-82
2023/05/11 12:04:43;;;;;;;2.40;1.65;;;;;;;;;;5033643;28;20045;-82
2023/05/11 12:07:09;;;;;;;1.70;1.60;;;;;;;;;;5034376;28;20034;-81
2023/05/11 12:09:35;;;;;;;1.70;1.60;;;;;;;;;;5023121;28;20013;-82
2023/05/11 12:12:02;;;;;;;1.55;1.45;;;;;;;;;;5014999;28;20026;-84
2023/05/11 12:14:29;;;;;;;5.20;2.33;;;;;;;;;;5022829;28;20708;-80
2023/05/11 12:17:02;;;;;;;1.85;1.60;;;;;;;;;;5016103;28;20038;-82
2023/05/11 12:19:28;;;;;;;1.50;1.40;;;;;;;;;;5028238;28;20065;-81
2023/05/11 12:21:54;;;;;;;1.90;1.60;;;;;;;;;;5032590;28;20061;-83
2023/05/11 12:24:20;;;;;;;3.70;1.60;;;;;;;;;;5025468;28;20021;-83
2023/05/11 12:26:46;;;;;;;1.92;1.65;;;;;;;;;;5030085;28;20045;-82
2023/05/11 12:29:13;;;;;;;1.40;1.35;;;;;;;;;;5041400;28;20030;-83
2023/05/11 12:31:40;;;;;;;1.80;1.70;;;;;;;;;;5023537;28;20405;-81
2023/05/11 12:34:15;;;;;;;1.70;1.40;;;;;;;;;;5017158;28;20026;-80
2023/05/11 12:36:41;;;;;;;2.25;1.50;;;;;;;;;;5015715;28;20030;-82
2023/05/11 12:39:07;;;;;;;1.67;1.58;;;;;;;;;;5021763;28;20105;-81
2023/05/11 12:41:33;;;;;;;1.48;1.40;;;;;;;;;;5022651;28;20054;-82
2023/05/11 12:43:59;;;;;;;2.13;1.58;;;;;;;;;;5009692;28;20488;-83
2023/05/11 12:46:25;;;;;;;2.03;1.80;;;;;;;;;;5008233;28;20097;-82
2023/05/11 12:48:53;;;;;;;2.05;1.60;;;;;;;;;;5024442;28;20040;-82
2023/05/11 12:51:38;;;;;;;1.80;1.70;;;;;;;;;;5023929;28;20053;-83
2023/05/11 12:54:04;;;;;;;3.63;1.98;;;;;;;;;;5039193;28;20033;-82
2023/05/11 12:56:29;;;;;;;1.90;1.80;;;;;;;;;;5044746;28;20088;-82
2023/05/11 12:58:56;;;;;;;4.18;2.00;;;;;;;;;;5030834;28;20038;-82
2023/05/11 13:01:25;;;;;;;3.25;1.90;;;;;;;;;;5017096;28;20030;-83
2023/05/11 13:03:51;;;;;;;2.97;2.10;;;;;;;;;;5040682;28;20033;-81
2023/05/11 13:06:18;;;;;;;7.80;2.90;;;;;;;;;;5048695;28;20096;-82
2023/05/11 13:08:44;;;;;;;2.88;2.10;;;;;;;;;;5025818;28;20088;-82
2023/05/11 13:11:15;;;;;;;2.75;2.08;;;;;;;;;;5027412;28;20044;-81
2023/05/11 13:13:41;;;;;;;3.20;1.70;;;;;;;;;;5024333;28;20045;-81
2023/05/11 13:16:07;;;;;;;2.13;1.92;;;;;;;;;;5027219;28;20041;-81
2023/05/11 13:18:33;;;;;;;6.60;2.40;;;;;;;;;;5002906;28;20034;-81
2023/05/11 13:21:04;;;;;;;5.88;2.15;;;;;;;;;;5020777;28;20034;-82
2023/05/11 13:23:30;;;;;;;4.93;2.03;;;;;;;;;;5005198;28;20408;-81
2023/05/11 13:25:56;;;;;;;2.30;2.10;;;;;;;;;;5020835;28;20038;-81
2023/05/11 13:28:23;;;;;;;2.55;2.17;;;;;;;;;;5022379;28;20453;-82
2023/05/11 13:30:52;;;;;;;4.30;2.05;;;;;;;;;;5023687;28;20484;-81
2023/05/11 13:33:18;;;;;;;6.28;1.70;;;;;;;;;;5009189;28;20134;-82
2023/05/11 13:35:44;;;;;;;3.25;2.25;;;;;;;;;;5023979;28;20091;-81
2023/05/11 13:38:10;;;;;;;5.25;1.90;;;;;;;;;;5020606;28;20033;-81
2023/05/11 13:40:37;;;;;;;1.88;1.70;;;;;;;;;;5014127;28;20054;-81
2023/05/11 13:43:03;;;;;;;5.43;2.15;;;;;;;;;;5019116;28;20034;-82
2023/05/11 13:45:30;;;;;;;2.10;2.00;;;;;;;;;;5025717;28;20038;-80
2023/05/11 13:47:55;;;;;;;6.97;1.90;;;;;;;;;;5023880;28;20048;-81
2023/05/11 13:50:22;;;;;;;5.22;2.15;;;;;;;;;;5007085;28;20030;-81
2023/05/11 13:52:49;;;;;;;7.97;2.00;;;;;;;;;;5022233;28;20052;-81
2023/05/11 13:55:15;;;;;;;4.57;2.20;;;;;;;;;;5024076;28;20030;-81
2023/05/11 13:57:41;;;;;;;6.00;2.30;;;;;;;;;;5025687;28;20388;-81
2023/05/11 14:00:07;;;;;;;2.92;1.73;;;;;;;;;;5022618;28;20030;-82
2023/05/11 14:02:38;;;;;;;5.43;2.00;;;;;;;;;;5016976;28;20056;-81
2023/05/11 14:05:04;;;;;;;5.03;2.08;;;;;;;;;;5016261;28;20052;-81
2023/05/11 14:07:31;;;;;;;5.10;2.05;;;;;;;;;;5016631;28;20534;-81
2023/05/11 14:09:56;;;;;;;9.88;2.78;;;;;;;;;;5016580;28;20116;-82
2023/05/11 14:12:23;;;;;;;3.95;2.45;;;;;;;;;;5016231;28;20549;-83
2023/05/11 14:14:49;;;;;;;6.38;2.60;;;;;;;;;;5021797;28;20038;-82
2023/05/11 14:17:16;;;;;;;6.47;5.32;;;;;;;;;;5000242;28;20034;-81
2023/05/11 14:19:41;;;;;;;4.18;2.30;;;;;;;;;;5021826;28;20029;-81
2023/05/11 14:22:07;;;;;;;6.57;2.60;;;;;;;;;;5022686;28;20064;-81
2023/05/11 14:24:33;;;;;;;5.68;3.00;;;;;;;;;;5022739;28;20065;-82
2023/05/11 14:26:59;;;;;;;3.92;2.42;;;;;;;;;;5020963;28;20037;-81
2023/05/11 14:29:26;;;;;;;4.88;2.60;;;;;;;;;;5022243;28;20037;-81
2023/05/11 14:31:52;;;;;;;4.47;2.30;;;;;;;;;;5029129;28;20403;-81
2023/05/11 14:34:18;;;;;;;2.88;2.08;;;;;;;;;;5027123;28;20038;-81
2023/05/11 14:36:44;;;;;;;2.40;2.20;;;;;;;;;;5029635;28;20034;-81
2023/05/11 14:39:10;;;;;;;5.07;2.28;;;;;;;;;;5026428;28;20042;-80
2023/05/11 14:41:36;;;;;;;3.38;1.90;;;;;;;;;;5026595;28;20050;-81
2023/05/11 14:44:02;;;;;;;2.97;2.03;;;;;;;;;;5029699;28;20037;-81